createdAt,value
2023-05-16T00:00:21.238Z,99325.63
2023-05-16T00:02:54.063Z,99332.81
2023-05-16T00:05:28.176Z,99338.19
2023-05-16T00:08:00.941Z,99341.72
2023-05-16T00:10:33.750Z,99338.06
2023-05-16T00:13:07.169Z,99338.19
2023-05-16T00:15:39.850Z,99339.38
2023-05-16T00:18:15.696Z,99326.41
2023-05-16T00:20:49.931Z,99333.22
2023-05-16T00:23:22.880Z,99329.13
2023-05-16T00:25:56.112Z,99337.63
2023-05-16T00:28:28.890Z,99338.06
2023-05-16T00:31:03.684Z,99349.03
2023-05-16T00:33:36.342Z,99343.13
2023-05-16T00:36:10.642Z,99342.38
2023-05-16T00:38:43.412Z,99359.09
2023-05-16T00:41:16.150Z,99354.50
2023-05-16T00:43:48.791Z,99348.69
2023-05-16T00:46:21.418Z,99350.03
2023-05-16T00:48:54.079Z,99355.22
2023-05-16T00:51:28.198Z,99358.94
2023-05-16T00:54:01.113Z,99357.47
2023-05-16T00:56:34.605Z,99354.06
2023-05-16T00:59:07.307Z,99366.91
2023-05-16T01:01:40.288Z,99364.59
2023-05-16T01:04:13.456Z,99361.25
2023-05-16T01:06:47.641Z,99362.34
2023-05-16T01:09:20.579Z,99371.56
2023-05-16T01:11:56.952Z,99377.03
2023-05-16T01:14:32.630Z,99383.59
2023-05-16T01:17:08.377Z,99386.50
2023-05-16T01:19:50.060Z,99381.34
2023-05-16T01:22:30.644Z,99379.84
2023-05-16T01:25:07.930Z,99390.78
2023-05-16T01:27:42.261Z,99385.72
2023-05-16T01:30:16.334Z,99394.97
2023-05-16T01:32:49.149Z,99388.94
2023-05-16T01:35:21.942Z,99399.03
2023-05-16T01:38:00.214Z,99401.81
2023-05-16T01:40:37.807Z,99386.94
2023-05-16T01:43:14.137Z,99396.88
2023-05-16T01:45:52.181Z,99402.53
2023-05-16T01:48:28.509Z,99393.88
2023-05-16T01:51:03.471Z,99401.06
2023-05-16T01:53:38.794Z,99400.94
2023-05-16T01:56:16.437Z,99397.28
2023-05-16T01:58:51.396Z,99397.09
2023-05-16T02:01:24.190Z,99398.69
2023-05-16T02:03:56.954Z,99393.97
2023-05-16T02:06:29.906Z,99396.56
2023-05-16T02:09:02.745Z,99397.53
2023-05-16T02:11:35.421Z,99403.09
2023-05-16T02:14:09.895Z,99406.00
2023-05-16T02:16:42.578Z,99397.41
2023-05-16T02:19:15.343Z,99395.06
2023-05-16T02:21:48.168Z,99395.38
2023-05-16T02:24:21.310Z,99397.50
2023-05-16T02:26:54.030Z,99397.72
2023-05-16T02:29:28.023Z,99400.50
2023-05-16T02:32:00.717Z,99404.34
2023-05-16T02:34:33.399Z,99392.00
2023-05-16T02:37:06.394Z,99398.34
2023-05-16T02:39:39.216Z,99393.94
2023-05-16T02:42:12.230Z,99399.41
2023-05-16T02:44:46.353Z,99400.59
2023-05-16T02:47:19.028Z,99405.16
2023-05-16T02:49:52.900Z,99404.41
2023-05-16T02:52:25.631Z,99409.03
2023-05-16T02:55:16.022Z,99411.72
2023-05-16T02:57:51.906Z,99404.72
2023-05-16T03:00:26.242Z,99396.78
2023-05-16T03:02:58.954Z,99402.25
2023-05-16T03:05:32.282Z,99399.56
2023-05-16T03:08:05.779Z,99402.25
2023-05-16T03:10:40.232Z,99405.03
2023-05-16T03:13:12.903Z,99399.69
2023-05-16T03:15:47.185Z,99403.09
2023-05-16T03:18:19.969Z,99398.63
2023-05-16T03:20:53.369Z,99403.88
2023-05-16T03:23:26.879Z,99404.63
2023-05-16T03:25:59.787Z,99408.16
2023-05-16T03:28:32.447Z,99403.56
2023-05-16T03:31:06.680Z,99399.81
2023-05-16T03:33:39.358Z,99401.63
2023-05-16T03:36:12.329Z,99407.75
2023-05-16T03:38:45.264Z,99408.38
2023-05-16T03:41:18.052Z,99413.44
2023-05-16T03:43:50.961Z,99410.53
2023-05-16T03:46:25.070Z,99420.09
2023-05-16T03:48:57.771Z,99418.91
2023-05-16T03:51:30.589Z,99420.44
2023-05-16T03:54:03.178Z,99422.81
2023-05-16T03:56:35.809Z,99428.69
2023-05-16T03:59:08.467Z,99431.91
2023-05-16T04:01:42.564Z,99437.84
2023-05-16T04:04:15.382Z,99447.25
2023-05-16T04:06:48.219Z,99453.91
2023-05-16T04:09:20.857Z,99453.34
2023-05-16T04:11:53.502Z,99463.66
2023-05-16T04:14:26.183Z,99468.50
2023-05-16T04:17:00.216Z,99478.91
2023-05-16T04:19:32.926Z,99474.06
2023-05-16T04:22:05.851Z,99478.91
2023-05-16T04:24:38.548Z,99477.50
2023-05-16T04:27:12.223Z,99482.44
2023-05-16T04:29:45.366Z,99475.69
2023-05-16T04:32:19.920Z,99493.81
2023-05-16T04:34:53.374Z,99488.75
2023-05-16T04:37:26.689Z,99492.75
2023-05-16T04:39:59.373Z,99492.16
2023-05-16T04:42:32.721Z,99495.13
2023-05-16T04:45:06.831Z,99477.53
2023-05-16T04:47:41.104Z,99477.69
2023-05-16T04:50:14.996Z,99480.66
2023-05-16T04:52:47.687Z,99485.47
2023-05-16T04:55:20.436Z,99480.38
2023-05-16T04:57:53.140Z,99494.22
2023-05-16T05:00:26.369Z,99490.22
2023-05-16T05:03:00.706Z,99493.19
2023-05-16T05:05:34.022Z,99501.41
2023-05-16T05:08:07.512Z,99502.78
2023-05-16T05:10:41.065Z,99496.88
2023-05-16T05:13:13.873Z,99497.25
2023-05-16T05:15:46.584Z,99508.38
2023-05-16T05:18:20.607Z,99508.66
2023-05-16T05:20:55.558Z,99512.34
2023-05-16T05:23:28.152Z,99507.34
2023-05-16T05:26:00.869Z,99512.16
2023-05-16T05:28:33.870Z,99514.47
2023-05-16T05:31:06.636Z,99527.53
2023-05-16T05:33:42.007Z,99525.50
2023-05-16T05:36:16.491Z,99523.16
2023-05-16T05:38:52.002Z,99533.56
2023-05-16T05:41:24.720Z,99533.69
2023-05-16T05:43:57.444Z,99541.06
2023-05-16T05:46:30.385Z,99551.94
2023-05-16T05:49:04.543Z,99549.34
2023-05-16T05:51:37.180Z,99560.00
2023-05-16T05:54:09.941Z,99565.16
2023-05-16T05:56:42.593Z,99567.84
2023-05-16T05:59:15.420Z,99572.56
2023-05-16T06:01:52.507Z,99582.72
2023-05-16T06:04:26.601Z,99595.09
2023-05-16T06:06:59.233Z,99594.97
2023-05-16T06:09:31.910Z,99614.56
2023-05-16T06:12:04.976Z,99622.28
2023-05-16T06:14:37.588Z,99618.59
2023-05-16T06:17:10.348Z,99634.00
2023-05-16T06:19:44.522Z,99625.66
2023-05-16T06:22:17.179Z,99622.84
2023-05-16T06:24:49.867Z,99621.88
2023-05-16T06:27:22.668Z,99632.63
2023-05-16T06:29:55.389Z,99635.06
2023-05-16T06:32:28.106Z,99643.88
2023-05-16T06:35:02.149Z,99648.16
2023-05-16T06:37:34.867Z,99660.03
2023-05-16T06:40:08.271Z,99663.31
2023-05-16T06:42:41.004Z,99662.34
2023-05-16T06:45:13.699Z,99669.91
2023-05-16T06:47:46.459Z,99666.41
2023-05-16T06:50:20.658Z,99673.91
2023-05-16T06:52:53.375Z,99671.69
2023-05-16T06:55:26.338Z,99681.88
2023-05-16T06:57:59.181Z,99679.56
2023-05-16T07:00:34.954Z,99690.63
2023-05-16T07:03:07.942Z,99696.41
2023-05-16T07:05:42.100Z,99701.78
2023-05-16T07:08:15.277Z,99708.25
2023-05-16T07:10:48.064Z,99711.56
2023-05-16T07:13:21.004Z,99706.47
2023-05-16T07:15:54.186Z,99710.03
2023-05-16T07:18:26.880Z,99714.44
2023-05-16T07:21:01.317Z,99708.94
2023-05-16T07:23:34.051Z,99713.81
2023-05-16T07:26:06.907Z,99709.97
2023-05-16T07:28:39.811Z,99710.47
2023-05-16T07:31:12.550Z,99713.22
2023-05-16T07:33:45.530Z,99721.50
2023-05-16T07:36:19.645Z,99714.22
2023-05-16T07:38:52.322Z,99721.88
2023-05-16T07:41:25.765Z,99721.88
2023-05-16T07:43:58.591Z,99716.75
2023-05-16T07:46:31.514Z,99725.50
2023-05-16T07:49:04.349Z,99729.56
2023-05-16T07:51:38.449Z,99729.00
2023-05-16T07:54:11.232Z,99729.53
2023-05-16T07:56:44.086Z,99726.50
2023-05-16T07:59:16.936Z,99718.34
2023-05-16T08:01:49.888Z,99723.63
2023-05-16T08:04:22.889Z,99729.97
2023-05-16T08:06:57.126Z,99737.75
2023-05-16T08:09:29.905Z,99734.13
2023-05-16T08:12:03.946Z,99747.19
2023-05-16T08:14:37.166Z,99733.13
2023-05-16T08:17:10.021Z,99737.84
2023-05-16T08:19:42.837Z,99735.28
2023-05-16T08:22:16.899Z,99732.91
2023-05-16T08:24:49.607Z,99732.75
2023-05-16T08:27:22.292Z,99731.75
2023-05-16T08:29:55.052Z,99736.72
2023-05-16T08:32:27.960Z,99734.19
2023-05-16T08:35:01.026Z,99742.28
2023-05-16T08:37:35.096Z,99751.44
2023-05-16T08:40:10.849Z,99753.22
2023-05-16T08:42:49.877Z,99741.50
2023-05-16T08:45:25.994Z,99756.50
2023-05-16T08:48:01.887Z,99752.00
2023-05-16T08:50:35.761Z,99753.94
2023-05-16T08:53:10.561Z,99748.22
2023-05-16T08:55:43.785Z,99749.63
2023-05-16T08:58:17.400Z,99745.63
2023-05-16T09:00:50.184Z,99755.69
2023-05-16T09:03:25.217Z,99757.25
2023-05-16T09:05:58.271Z,99748.69
2023-05-16T09:08:32.511Z,99745.34
2023-05-16T09:11:05.528Z,99747.09
2023-05-16T09:13:39.108Z,99757.75
2023-05-16T09:16:12.746Z,99768.44
2023-05-16T09:18:46.380Z,99764.59
2023-05-16T09:21:19.326Z,99776.19
2023-05-16T09:23:53.504Z,99779.22
2023-05-16T09:26:26.485Z,99768.63
2023-05-16T09:28:59.492Z,99782.63
2023-05-16T09:31:38.015Z,99781.13
2023-05-16T09:34:12.947Z,99799.09
2023-05-16T09:36:45.759Z,99794.91
2023-05-16T09:39:19.842Z,99810.66
2023-05-16T09:41:53.220Z,99822.03
2023-05-16T09:44:26.123Z,99827.56
2023-05-16T09:46:58.883Z,99833.38
2023-05-16T09:49:31.962Z,99840.31
2023-05-16T09:52:04.897Z,99839.94
2023-05-16T09:54:39.288Z,99843.91
2023-05-16T09:57:12.003Z,99849.97
2023-05-16T09:59:46.741Z,99850.00
2023-05-16T10:02:20.582Z,99850.63
2023-05-16T10:04:53.435Z,99860.34
2023-05-16T10:07:26.488Z,99853.91
2023-05-16T10:10:01.720Z,99859.97
2023-05-16T10:12:34.574Z,99857.56
2023-05-16T10:15:07.815Z,99855.50
2023-05-16T10:17:41.614Z,99876.63
2023-05-16T10:20:14.453Z,99865.44
2023-05-16T10:22:48.037Z,99865.34
2023-05-16T10:25:27.223Z,99859.81
2023-05-16T10:28:00.630Z,99861.13
2023-05-16T10:30:34.915Z,99863.34
2023-05-16T10:33:08.040Z,99868.03
2023-05-16T10:35:41.055Z,99868.56
2023-05-16T10:38:14.740Z,99845.44
2023-05-16T10:40:49.828Z,99851.03
2023-05-16T10:43:26.823Z,99853.09
2023-05-16T10:46:01.029Z,99857.88
2023-05-16T10:48:35.054Z,99863.34
2023-05-16T10:51:34.724Z,99860.44
2023-05-16T10:54:09.012Z,99857.34
2023-05-16T10:56:43.353Z,99869.84
2023-05-16T10:59:26.195Z,99872.91
2023-05-16T11:01:58.995Z,99871.88
2023-05-16T11:04:47.244Z,99867.59
2023-05-16T11:07:21.075Z,99875.09
2023-05-16T11:10:05.354Z,99871.88
2023-05-16T11:12:43.691Z,99877.16
2023-05-16T11:15:20.503Z,99871.69
2023-05-16T11:17:53.297Z,99874.25
2023-05-16T11:20:26.540Z,99866.59
2023-05-16T11:23:14.073Z,99873.22
2023-05-16T11:25:47.775Z,99868.97
2023-05-16T11:28:22.831Z,99868.31
2023-05-16T11:30:57.679Z,99870.63
2023-05-16T11:33:35.496Z,99870.25
2023-05-16T11:38:45.936Z,99882.84
2023-05-16T11:41:25.198Z,99875.66
2023-05-16T11:44:11.045Z,99881.44
2023-05-16T11:46:49.083Z,99890.94
2023-05-16T11:49:25.256Z,99886.84
2023-05-16T11:51:58.572Z,99894.97
2023-05-16T11:54:41.493Z,99893.69
2023-05-16T11:57:14.377Z,99888.25
2023-05-16T11:59:48.534Z,99894.53
2023-05-16T12:02:21.805Z,99890.81
2023-05-16T12:05:10.570Z,99900.69
2023-05-16T12:07:44.580Z,99905.09
2023-05-16T12:10:17.953Z,99904.41
2023-05-16T12:12:52.897Z,99905.44
2023-05-16T12:15:27.234Z,99907.84
2023-05-16T12:18:00.284Z,99910.41
2023-05-16T12:20:33.325Z,99905.81
2023-05-16T12:23:06.066Z,99898.66
2023-05-16T12:25:46.017Z,99894.00
2023-05-16T12:28:18.756Z,99894.97
2023-05-16T12:30:52.832Z,99897.03
2023-05-16T12:33:25.658Z,99896.53
2023-05-16T12:36:01.746Z,99898.06
2023-05-16T12:38:34.499Z,99907.34
2023-05-16T12:41:07.235Z,99899.66
2023-05-16T12:43:40.058Z,99898.97
2023-05-16T12:46:14.376Z,99899.97
2023-05-16T12:48:48.261Z,99893.66
2023-05-16T12:51:21.053Z,99896.75
2023-05-16T12:54:08.973Z,99910.06
2023-05-16T12:56:45.619Z,99916.88
2023-05-16T12:59:20.011Z,99910.94
2023-05-16T13:01:54.157Z,99917.22
2023-05-16T13:04:28.685Z,99921.50
2023-05-16T13:07:01.390Z,99930.19
2023-05-16T13:09:34.235Z,99930.69
2023-05-16T13:12:07.513Z,99924.41
2023-05-16T13:14:41.818Z,99924.22
2023-05-16T13:17:17.316Z,99922.69
2023-05-16T13:19:49.995Z,99920.19
2023-05-16T13:22:22.808Z,99928.69
2023-05-16T13:24:55.635Z,99926.47
2023-05-16T13:27:28.522Z,99929.38
2023-05-16T13:30:01.347Z,99938.94
2023-05-16T13:32:35.528Z,99933.13
2023-05-16T13:35:08.545Z,99923.56
2023-05-16T13:37:41.561Z,99916.03
2023-05-16T13:40:14.369Z,99919.81
2023-05-16T13:42:47.099Z,99919.81
2023-05-16T13:45:21.651Z,99921.88
2023-05-16T13:47:55.853Z,99918.75
2023-05-16T13:50:33.363Z,99929.69
2023-05-16T13:53:06.978Z,99932.78
2023-05-16T13:55:40.074Z,99915.53
2023-05-16T13:58:12.798Z,99917.59
2023-05-16T14:00:46.203Z,99914.34
2023-05-16T14:03:20.672Z,99901.56
2023-05-16T14:05:53.581Z,99908.91
2023-05-16T14:08:26.413Z,99903.44
2023-05-16T14:10:59.122Z,99900.19
2023-05-16T14:13:31.798Z,99903.63
2023-05-16T14:16:04.547Z,99910.09
2023-05-16T14:18:38.748Z,99908.38
2023-05-16T14:21:11.471Z,99904.94
2023-05-16T14:23:44.428Z,99918.59
2023-05-16T14:26:18.365Z,99917.38
2023-05-16T14:28:51.295Z,99905.47
2023-05-16T14:31:24.088Z,99903.09
2023-05-16T14:33:58.995Z,99905.09
2023-05-16T14:36:31.927Z,99908.69
2023-05-16T14:39:04.970Z,99913.63
2023-05-16T14:41:37.764Z,99909.72
2023-05-16T14:44:10.641Z,99908.50
2023-05-16T14:46:43.551Z,99906.25
2023-05-16T14:49:17.806Z,99908.66
2023-05-16T14:51:51.000Z,99915.28
2023-05-16T14:54:23.730Z,99919.19
2023-05-16T14:56:56.824Z,99909.44
2023-05-16T14:59:29.583Z,99909.56
2023-05-16T15:02:02.354Z,99921.81
2023-05-16T15:04:36.533Z,99924.34
2023-05-16T15:07:09.294Z,99925.16
2023-05-16T15:09:42.166Z,99924.66
2023-05-16T15:12:16.029Z,99920.56
2023-05-16T15:14:48.826Z,99914.72
2023-05-16T15:17:21.825Z,99914.19
2023-05-16T15:19:55.940Z,99922.50
2023-05-16T15:22:30.213Z,99915.59
2023-05-16T15:25:05.817Z,99916.88
2023-05-16T15:27:38.598Z,99929.44
2023-05-16T15:30:12.244Z,99922.56
2023-05-16T15:32:44.981Z,99924.47
2023-05-16T15:35:19.188Z,99921.22
2023-05-16T15:37:58.723Z,99912.84
2023-05-16T15:40:31.384Z,99915.56
2023-05-16T15:43:07.490Z,99914.69
2023-05-16T15:45:45.188Z,99905.13
2023-05-16T15:48:18.060Z,99905.47
2023-05-16T15:50:54.939Z,99904.22
2023-05-16T15:53:27.643Z,99903.31
2023-05-16T15:56:08.464Z,99903.94
2023-05-16T15:58:41.341Z,99899.13
2023-05-16T16:01:15.727Z,99909.47
2023-05-16T16:03:49.058Z,99904.78
2023-05-16T16:06:23.414Z,99902.53
2023-05-16T16:08:56.225Z,99901.25
2023-05-16T16:11:28.997Z,99899.19
2023-05-16T16:14:01.811Z,99888.78
2023-05-16T16:16:37.290Z,99896.56
2023-05-16T16:19:10.294Z,99895.31
2023-05-16T16:21:44.588Z,99896.91
2023-05-16T16:24:17.548Z,99899.56
2023-05-16T16:26:50.437Z,99893.19
2023-05-16T16:29:23.194Z,99894.94
2023-05-16T16:31:56.317Z,99893.84
2023-05-16T16:34:29.145Z,99901.59
2023-05-16T16:37:04.179Z,99896.75
2023-05-16T16:39:37.290Z,99889.19
2023-05-16T16:42:10.074Z,99887.63
2023-05-16T16:44:42.842Z,99888.22
2023-05-16T16:47:15.797Z,99897.84
2023-05-16T16:49:48.508Z,99895.56
2023-05-16T16:52:22.939Z,99896.88
2023-05-16T16:54:55.862Z,99905.47
2023-05-16T16:57:28.608Z,99906.09
2023-05-16T17:00:01.330Z,99909.25
2023-05-16T17:02:34.264Z,99912.25
2023-05-16T17:05:07.735Z,99899.13
2023-05-16T17:07:41.954Z,99900.53
2023-05-16T17:10:14.716Z,99901.84
2023-05-16T17:12:49.714Z,99900.56
2023-05-16T17:15:22.492Z,99903.72
2023-05-16T17:17:55.263Z,99909.59
2023-05-16T17:20:27.975Z,99907.44
2023-05-16T17:23:02.201Z,99909.72
2023-05-16T17:25:34.940Z,99909.44
2023-05-16T17:28:07.769Z,99918.31
2023-05-16T17:30:40.668Z,99924.28
2023-05-16T17:33:13.478Z,99931.03
2023-05-16T17:35:48.764Z,99927.75
2023-05-16T17:38:22.810Z,99931.44
2023-05-16T17:40:55.539Z,99932.56
2023-05-16T17:43:28.244Z,99928.31
2023-05-16T17:46:03.288Z,99933.28
2023-05-16T17:48:36.023Z,99938.13
2023-05-16T17:51:08.780Z,99932.28
2023-05-16T17:53:43.354Z,99936.28
2023-05-16T17:56:16.525Z,99932.16
2023-05-16T17:58:49.300Z,99934.44
2023-05-16T18:01:22.018Z,99935.56
2023-05-16T18:03:55.308Z,99936.81
2023-05-16T18:06:28.259Z,99939.97
2023-05-16T18:09:05.250Z,99935.69
2023-05-16T18:11:38.851Z,99937.91
2023-05-16T18:14:12.861Z,99935.50
2023-05-16T18:16:45.591Z,99942.16
2023-05-16T18:19:18.343Z,99944.31
2023-05-16T18:21:51.144Z,99944.72
2023-05-16T18:24:25.196Z,99940.56
2023-05-16T18:26:57.973Z,99944.56
2023-05-16T18:29:30.872Z,99941.28
2023-05-16T18:32:05.031Z,99945.22
2023-05-16T18:34:37.936Z,99939.09
2023-05-16T18:37:10.735Z,99947.50
2023-05-16T18:39:44.936Z,99953.19
2023-05-16T18:42:18.708Z,99954.31
2023-05-16T18:44:51.528Z,99965.41
2023-05-16T18:47:24.328Z,99961.13
2023-05-16T18:49:57.080Z,99967.66
2023-05-16T18:52:29.912Z,99965.09
2023-05-16T18:55:06.610Z,99968.94
2023-05-16T18:57:39.493Z,99968.06
2023-05-16T19:00:13.196Z,99973.75
2023-05-16T19:02:46.030Z,99972.19
2023-05-16T19:05:19.791Z,99964.34
2023-05-16T19:07:52.888Z,99973.44
2023-05-16T19:10:45.023Z,99981.94
2023-05-16T19:13:17.872Z,99982.47
2023-05-16T19:15:53.291Z,99985.59
2023-05-16T19:18:26.119Z,99984.16
2023-05-16T19:20:58.880Z,99989.81
2023-05-16T19:23:31.888Z,99979.38
2023-05-16T19:26:06.195Z,99990.31
2023-05-16T19:28:40.704Z,99982.59
2023-05-16T19:31:13.437Z,99985.44
2023-05-16T19:33:46.422Z,99995.53
2023-05-16T19:36:19.228Z,99993.22
2023-05-16T19:38:52.130Z,99992.63
2023-05-16T19:41:26.370Z,99989.31
2023-05-16T19:43:59.099Z,99986.00
2023-05-16T19:46:31.900Z,99995.38
2023-05-16T19:49:04.894Z,99992.94
2023-05-16T19:51:41.286Z,99993.19
2023-05-16T19:54:15.118Z,99984.50
2023-05-16T19:56:49.381Z,99990.28
2023-05-16T19:59:22.557Z,99982.56
2023-05-16T20:01:55.265Z,99982.81
2023-05-16T20:04:28.149Z,99984.16
2023-05-16T20:07:01.001Z,99976.44
2023-05-16T20:09:33.893Z,99974.13
2023-05-16T20:12:08.806Z,99977.25
2023-05-16T20:14:42.156Z,99971.34
2023-05-16T20:17:14.808Z,99976.13
2023-05-16T20:19:47.564Z,99974.66
2023-05-16T20:22:20.343Z,99971.50
2023-05-16T20:24:53.086Z,99974.53
2023-05-16T20:27:27.348Z,99974.66
2023-05-16T20:30:00.177Z,99981.19
2023-05-16T20:32:32.910Z,99984.28
2023-05-16T20:35:09.139Z,99979.00
2023-05-16T20:37:43.463Z,99981.09
2023-05-16T20:40:16.200Z,99982.31
2023-05-16T20:42:50.262Z,99979.97
2023-05-16T20:45:24.050Z,99996.44
2023-05-16T20:47:56.826Z,99995.81
2023-05-16T20:50:29.868Z,99989.69
2023-05-16T20:53:02.703Z,99991.75
2023-05-16T20:55:35.458Z,99993.88
2023-05-16T20:58:09.610Z,99990.19
2023-05-16T21:00:42.275Z,99992.03
2023-05-16T21:03:14.963Z,99993.63
2023-05-16T21:05:47.806Z,99988.34
2023-05-16T21:08:20.636Z,99988.34
2023-05-16T21:10:53.330Z,99992.16
2023-05-16T21:13:28.590Z,99989.59
2023-05-16T21:16:01.293Z,99994.34
2023-05-16T21:18:34.080Z,99983.78
2023-05-16T21:21:07.016Z,99992.00
2023-05-16T21:23:39.828Z,99996.81
2023-05-16T21:26:12.553Z,99994.22
2023-05-16T21:31:26.021Z,100002.69
2023-05-16T21:33:58.692Z,100003.94
2023-05-16T21:36:31.435Z,100004.28
2023-05-16T21:39:04.251Z,100007.97
2023-05-16T21:41:37.058Z,100017.06
2023-05-16T21:44:13.482Z,100012.75
2023-05-16T21:46:46.231Z,100016.66
2023-05-16T21:49:18.928Z,100019.72
2023-05-16T21:51:52.107Z,100018.25
2023-05-16T21:54:25.606Z,100015.66
2023-05-16T21:56:58.385Z,100010.38
2023-05-16T21:59:32.433Z,100017.88
2023-05-16T22:02:05.314Z,100019.91
2023-05-16T22:04:38.186Z,100009.53
2023-05-16T22:07:11.013Z,100016.81
2023-05-16T22:09:43.850Z,100019.75
2023-05-16T22:12:16.597Z,100010.81
2023-05-16T22:14:50.614Z,100010.91
2023-05-16T22:17:23.552Z,100019.25
2023-05-16T22:19:56.474Z,100018.50
2023-05-16T22:22:29.243Z,100019.47
2023-05-16T22:25:02.165Z,100023.03
2023-05-16T22:27:34.860Z,100029.41
2023-05-16T22:30:09.819Z,100023.16
2023-05-16T22:32:43.115Z,100018.88
2023-05-16T22:35:15.896Z,100021.06
2023-05-16T22:37:48.636Z,100026.56
2023-05-16T22:40:21.618Z,100024.94
2023-05-16T22:42:54.369Z,100025.81
2023-05-16T22:45:28.657Z,100022.38
2023-05-16T22:48:01.534Z,100023.47
2023-05-16T22:50:34.343Z,100021.88
2023-05-16T22:53:07.018Z,100025.53
2023-05-16T22:55:39.758Z,100026.41
2023-05-16T22:58:12.478Z,100026.53
2023-05-16T23:00:46.541Z,100025.66
2023-05-16T23:03:19.392Z,100035.69
2023-05-16T23:05:52.093Z,100029.56
2023-05-16T23:08:24.798Z,100033.22
2023-05-16T23:10:57.457Z,100034.19
2023-05-16T23:13:30.127Z,100035.31
2023-05-16T23:16:04.159Z,100030.88
2023-05-16T23:18:36.996Z,100027.56
2023-05-16T23:21:09.823Z,100027.78
2023-05-16T23:23:42.481Z,100024.47
2023-05-16T23:26:15.167Z,100014.53
2023-05-16T23:28:47.856Z,100016.25
2023-05-16T23:31:21.946Z,100011.00
2023-05-16T23:33:54.673Z,100006.78
2023-05-16T23:36:27.445Z,100011.44
2023-05-16T23:39:00.115Z,100009.81
2023-05-16T23:41:32.757Z,100012.00
2023-05-16T23:44:05.578Z,100009.44
2023-05-16T23:46:39.618Z,99997.16
2023-05-16T23:49:12.277Z,99994.72
2023-05-16T23:51:56.659Z,99995.06
2023-05-16T23:54:29.834Z,99992.69
2023-05-16T23:57:05.641Z,99993.66
2023-05-16T23:59:38.293Z,99989.34
